createdAt,value
2018-11-20T00:01:07.751Z,64.72
2018-11-20T00:04:12.226Z,64.71
2018-11-20T00:07:10.674Z,64.53
2018-11-20T00:10:02.749Z,65.40
2018-11-20T00:12:50.685Z,64.69
2018-11-20T00:15:45.171Z,64.44
2018-11-20T00:18:45.601Z,67.44
2018-11-20T00:21:23.089Z,67.47
2018-11-20T00:24:16.563Z,67.44
2018-11-20T00:27:05.759Z,66.27
2018-11-20T00:29:57.969Z,66.62
2018-11-20T00:32:53.168Z,65.85
2018-11-20T00:35:41.126Z,65.41
2018-11-20T00:38:28.951Z,66.84
2018-11-20T00:41:18.192Z,66.72
2018-11-20T00:43:57.961Z,66.78
2018-11-20T00:46:45.949Z,65.91
2018-11-20T00:49:33.916Z,65.17
2018-11-20T00:52:21.920Z,66.71
2018-11-20T00:55:16.363Z,66.07
2018-11-20T00:58:14.642Z,65.94
2018-11-20T01:01:04.752Z,66.01
2018-11-20T01:03:53.947Z,66.30
2018-11-20T01:06:45.688Z,66.30
2018-11-20T01:09:33.512Z,66.63
2018-11-20T01:12:21.884Z,67.10
2018-11-20T01:15:11.960Z,66.86
2018-11-20T01:18:01.424Z,66.75
2018-11-20T01:20:45.779Z,67.51
2018-11-20T01:23:41.034Z,67.52
2018-11-20T01:26:36.122Z,67.06
2018-11-20T01:29:23.813Z,66.80
2018-11-20T01:32:25.366Z,66.68
2018-11-20T01:35:16.684Z,66.97
2018-11-20T01:38:08.933Z,66.61
2018-11-20T01:40:56.567Z,65.65
2018-11-20T01:43:48.386Z,66.90
2018-11-20T01:46:52.633Z,66.34
2018-11-20T01:49:49.036Z,65.78
2018-11-20T01:52:36.790Z,65.72
2018-11-20T01:55:21.131Z,65.73
2018-11-20T01:58:16.206Z,65.93
2018-11-20T02:01:08.398Z,66.43
2018-11-20T02:04:00.840Z,66.31
2018-11-20T02:06:55.412Z,66.10
2018-11-20T02:09:44.600Z,65.60
2018-11-20T02:12:40.842Z,67.28
2018-11-20T02:15:37.549Z,68.10
2018-11-20T02:18:31.045Z,67.77
2018-11-20T02:21:20.229Z,67.26
2018-11-20T02:24:15.288Z,66.39
2018-11-20T02:27:03.138Z,66.23
2018-11-20T02:29:55.360Z,66.33
2018-11-20T02:32:56.756Z,66.91
2018-11-20T02:35:40.973Z,66.78
2018-11-20T02:38:28.828Z,66.97
2018-11-20T02:41:30.389Z,66.82
2018-11-20T02:44:15.121Z,66.98
2018-11-20T02:47:04.593Z,66.98
2018-11-20T02:49:59.491Z,66.00
2018-11-20T02:52:47.203Z,66.67
2018-11-20T02:55:39.451Z,67.04
2018-11-20T02:58:27.227Z,66.87
2018-11-20T03:01:11.409Z,67.91
2018-11-20T03:04:18.687Z,68.12
2018-11-20T03:07:10.754Z,69.13
2018-11-20T03:10:09.268Z,69.40
2018-11-20T03:12:47.785Z,68.62
2018-11-20T03:15:40.229Z,68.40
2018-11-20T03:18:22.023Z,68.45
2018-11-20T03:21:16.910Z,68.46
2018-11-20T03:24:04.700Z,68.33
2018-11-20T03:26:52.789Z,69.72
2018-11-20T03:30:34.856Z,69.10
2018-11-20T03:33:29.988Z,69.29
2018-11-20T03:36:19.253Z,69.13
2018-11-20T03:39:07.070Z,68.95
2018-11-20T03:41:59.025Z,69.15
2018-11-20T03:44:57.164Z,69.36
2018-11-20T03:47:55.469Z,68.46
2018-11-20T03:50:47.208Z,68.45
2018-11-20T03:53:39.326Z,68.66
2018-11-20T03:56:34.292Z,67.89
2018-11-20T03:59:32.424Z,68.50
2018-11-20T04:02:21.721Z,67.92
2018-11-20T04:05:16.786Z,67.87
2018-11-20T04:08:03.045Z,68.26
2018-11-20T04:11:03.107Z,68.88
2018-11-20T04:13:55.053Z,68.55
2018-11-20T04:16:43.269Z,69.21
2018-11-20T04:19:30.969Z,69.57
2018-11-20T04:22:20.176Z,71.18
2018-11-20T04:25:21.480Z,70.17
2018-11-20T04:28:16.613Z,70.94
2018-11-20T04:31:38.361Z,70.29
2018-11-20T04:34:33.684Z,70.72
2018-11-20T04:37:26.602Z,70.95
2018-11-20T04:40:15.982Z,71.50
2018-11-20T04:43:11.969Z,72.60
2018-11-20T04:46:01.183Z,72.53
2018-11-20T04:48:42.655Z,71.39
2018-11-20T04:51:34.610Z,71.69
2018-11-20T04:54:22.429Z,73.70
2018-11-20T04:57:20.583Z,73.99
2018-11-20T05:00:25.033Z,74.67
2018-11-20T05:03:12.827Z,74.24
2018-11-20T05:06:00.709Z,74.83
2018-11-20T05:09:08.434Z,74.57
2018-11-20T05:12:07.386Z,74.70
2018-11-20T05:15:02.425Z,74.49
2018-11-20T05:18:03.658Z,74.07
2018-11-20T05:20:52.420Z,74.33
2018-11-20T05:23:47.909Z,74.29
2018-11-20T05:26:35.699Z,75.40
2018-11-20T05:29:40.322Z,74.92
2018-11-20T05:32:35.374Z,74.75
2018-11-20T05:35:40.283Z,74.75
2018-11-20T05:38:28.188Z,75.12
2018-11-20T05:41:12.579Z,74.18
2018-11-20T05:44:10.958Z,74.56
2018-11-20T05:46:58.758Z,73.53
2018-11-20T05:49:46.304Z,74.24
2018-11-20T05:52:31.536Z,73.07
2018-11-20T05:55:26.679Z,73.21
2018-11-20T05:58:24.933Z,74.96
2018-11-20T06:01:14.175Z,74.61
2018-11-20T06:04:02.470Z,74.82
2018-11-20T06:06:54.711Z,73.85
2018-11-20T06:09:52.981Z,73.36
2018-11-20T06:12:45.034Z,73.07
2018-11-20T06:15:34.422Z,75.02
2018-11-20T06:18:24.829Z,74.07
2018-11-20T06:21:13.882Z,74.55
2018-11-20T06:24:05.719Z,74.57
2018-11-20T06:27:06.915Z,74.54
2018-11-20T06:29:54.592Z,74.46
2018-11-20T06:32:49.884Z,73.90
2018-11-20T06:35:44.804Z,74.31
2018-11-20T06:38:52.054Z,74.05
2018-11-20T06:41:40.039Z,74.86
2018-11-20T06:44:44.269Z,72.89
2018-11-20T06:47:36.358Z,72.55
2018-11-20T06:50:36.116Z,72.82
2018-11-20T06:53:28.487Z,72.67
2018-11-20T06:56:16.297Z,72.71
2018-11-20T06:59:04.291Z,72.07
2018-11-20T07:01:59.188Z,72.51
2018-11-20T07:04:47.087Z,72.64
2018-11-20T07:07:42.405Z,73.99
2018-11-20T07:10:26.894Z,75.13
2018-11-20T07:13:31.270Z,72.73
2018-11-20T07:17:00.583Z,72.83
2018-11-20T07:19:47.743Z,73.30
2018-11-20T07:22:52.331Z,74.15
2018-11-20T07:25:40.463Z,73.19
2018-11-20T07:28:28.434Z,71.80
2018-11-20T07:31:16.336Z,72.62
2018-11-20T07:34:05.353Z,72.34
2018-11-20T07:36:53.175Z,73.05
2018-11-20T07:39:51.048Z,72.71
2018-11-20T07:42:52.614Z,73.35
2018-11-20T07:45:44.591Z,72.50
2018-11-20T07:48:39.774Z,71.74
2018-11-20T07:51:27.895Z,72.06
2018-11-20T07:54:17.252Z,72.55
2018-11-20T07:57:21.779Z,73.13
2018-11-20T08:00:14.082Z,71.77
2018-11-20T08:03:09.369Z,72.06
2018-11-20T08:05:57.204Z,71.64
2018-11-20T08:08:45.150Z,71.85
2018-11-20T08:11:34.366Z,73.40
2018-11-20T08:14:24.326Z,72.44
2018-11-20T08:17:17.140Z,72.19
2018-11-20T08:20:04.775Z,72.29
2018-11-20T08:22:49.330Z,72.00
2018-11-20T08:25:47.448Z,71.65
2018-11-20T08:28:36.708Z,71.96
2018-11-20T08:31:30.035Z,72.84
2018-11-20T08:34:11.258Z,72.52
2018-11-20T08:36:59.114Z,72.44
2018-11-20T08:39:46.934Z,72.68
2018-11-20T08:42:51.266Z,72.57
2018-11-20T08:45:52.577Z,72.18
2018-11-20T08:48:53.744Z,72.19
2018-11-20T08:51:48.887Z,71.68
2018-11-20T08:54:36.713Z,71.50
2018-11-20T08:57:24.806Z,70.93
2018-11-20T09:00:23.377Z,71.79
2018-11-20T09:03:15.836Z,73.45
2018-11-20T09:06:20.184Z,75.26
2018-11-20T09:09:07.987Z,73.22
2018-11-20T09:12:06.564Z,73.54
2018-11-20T09:14:53.970Z,73.02
2018-11-20T09:17:41.962Z,73.60
2018-11-20T09:20:39.837Z,73.75
2018-11-20T09:23:34.785Z,73.27
2018-11-20T09:26:30.194Z,72.52
2018-11-20T09:29:17.835Z,71.90
2018-11-20T09:32:06.235Z,72.48
2018-11-20T09:34:51.116Z,72.53
2018-11-20T09:37:49.421Z,73.28
2018-11-20T09:41:08.572Z,72.98
2018-11-20T09:44:02.801Z,72.83
2018-11-20T09:46:55.067Z,73.99
2018-11-20T09:49:42.852Z,74.76
2018-11-20T09:52:30.636Z,74.50
2018-11-20T09:55:18.321Z,73.26
2018-11-20T09:58:06.651Z,73.31
2018-11-20T10:01:00.594Z,73.03
2018-11-20T10:04:02.248Z,73.19
2018-11-20T10:06:46.818Z,73.11
2018-11-20T10:09:36.028Z,73.55
2018-11-20T10:12:40.183Z,73.50
2018-11-20T10:15:29.410Z,73.70
2018-11-20T10:18:17.223Z,72.92
2018-11-20T10:21:18.843Z,73.39
2018-11-20T10:24:14.163Z,74.15
2018-11-20T10:27:12.582Z,73.85
2018-11-20T10:30:00.561Z,74.14
2018-11-20T10:32:52.876Z,75.12
2018-11-20T10:35:48.029Z,73.67
2018-11-20T10:38:37.295Z,73.71
2018-11-20T10:41:32.506Z,73.99
2018-11-20T10:44:27.683Z,73.99
2018-11-20T10:47:20.085Z,73.41
2018-11-20T10:50:08.110Z,74.55
2018-11-20T10:52:54.624Z,75.23
2018-11-20T10:56:02.177Z,75.40
2018-11-20T10:58:57.578Z,76.05
2018-11-20T11:01:45.662Z,75.71
2018-11-20T11:04:32.913Z,75.58
2018-11-20T11:07:28.064Z,76.07
2018-11-20T11:10:05.616Z,76.56
2018-11-20T11:12:52.978Z,76.72
2018-11-20T11:15:48.184Z,76.48
2018-11-20T11:18:41.757Z,76.19
2018-11-20T11:21:29.703Z,74.85
2018-11-20T11:24:21.516Z,74.19
2018-11-20T11:27:13.475Z,73.87
2018-11-20T11:30:15.041Z,74.11
2018-11-20T11:33:16.528Z,73.10
2018-11-20T11:36:08.804Z,73.96
2018-11-20T11:38:48.624Z,73.09
2018-11-20T11:41:49.773Z,73.54
2018-11-20T11:44:37.662Z,72.63
2018-11-20T11:47:45.290Z,73.14
2018-11-20T11:50:46.814Z,73.63
2018-11-20T11:53:36.127Z,73.64
2018-11-20T11:56:24.158Z,73.05
2018-11-20T11:59:12.328Z,73.85
2018-11-20T12:05:06.686Z,74.51
2018-11-20T12:08:04.738Z,73.83
2018-11-20T12:10:52.545Z,75.64
2018-11-20T12:14:00.053Z,74.81
2018-11-20T12:16:47.993Z,73.73
2018-11-20T12:19:40.346Z,77.24
2018-11-20T12:22:41.645Z,76.22
2018-11-20T12:25:19.419Z,75.18
2018-11-20T12:28:19.347Z,74.30
2018-11-20T12:31:23.744Z,74.23
2018-11-20T12:34:12.929Z,73.95
2018-11-20T12:37:00.846Z,74.00
2018-11-20T12:39:49.877Z,74.12
2018-11-20T12:42:42.061Z,74.09
2018-11-20T12:45:34.180Z,73.83
2018-11-20T12:48:23.167Z,75.91
2018-11-20T12:51:13.062Z,74.96
2018-11-20T12:54:02.279Z,75.40
2018-11-20T12:56:50.073Z,75.45
2018-11-20T12:59:37.503Z,74.41
2018-11-20T13:02:25.542Z,73.20
2018-11-20T13:05:28.646Z,73.44
2018-11-20T13:08:10.259Z,74.02
2018-11-20T13:11:08.230Z,73.58
2018-11-20T13:14:00.286Z,74.51
2018-11-20T13:16:49.515Z,74.31
2018-11-20T13:19:44.547Z,73.82
2018-11-20T13:22:35.677Z,74.04
2018-11-20T13:25:38.748Z,73.71
2018-11-20T13:28:30.860Z,74.31
2018-11-20T13:31:20.673Z,75.07
2018-11-20T13:34:20.943Z,75.21
2018-11-20T13:37:11.830Z,75.88
2018-11-20T13:40:06.724Z,76.40
2018-11-20T13:42:53.519Z,77.22
2018-11-20T13:45:43.628Z,76.85
2018-11-20T13:48:30.696Z,77.82
2018-11-20T13:51:20.268Z,76.91
2018-11-20T13:54:08.313Z,76.41
2018-11-20T13:56:56.507Z,76.73
2018-11-20T13:59:44.260Z,76.99
2018-11-20T14:02:48.871Z,76.15
2018-11-20T14:05:32.899Z,76.00
2018-11-20T14:08:21.973Z,77.89
2018-11-20T14:11:06.197Z,77.84
2018-11-20T14:13:48.740Z,76.67
2018-11-20T14:16:50.124Z,76.71
2018-11-20T14:19:37.970Z,76.95
2018-11-20T14:22:45.324Z,75.61
2018-11-20T14:25:47.063Z,75.39
2018-11-20T14:28:30.295Z,75.46
2018-11-20T14:31:28.762Z,74.37
2018-11-20T14:34:18.764Z,75.39
2018-11-20T14:37:10.791Z,75.94
2018-11-20T14:40:08.755Z,75.88
2018-11-20T14:42:56.543Z,76.03
2018-11-20T14:45:44.560Z,75.75
2018-11-20T14:48:30.804Z,76.01
2018-11-20T14:51:28.512Z,75.79
2018-11-20T14:54:08.504Z,76.21
2018-11-20T14:57:09.847Z,76.80
2018-11-20T14:59:57.757Z,76.79
2018-11-20T15:02:55.832Z,76.19
2018-11-20T15:05:43.985Z,77.12
2018-11-20T15:08:33.168Z,76.76
2018-11-20T15:11:21.328Z,77.54
2018-11-20T15:14:16.324Z,76.84
2018-11-20T15:17:01.723Z,76.98
2018-11-20T15:19:49.618Z,77.05
2018-11-20T15:22:37.277Z,77.48
2018-11-20T15:25:37.631Z,76.81
2018-11-20T15:28:35.711Z,76.61
2018-11-20T15:31:30.659Z,75.97
2018-11-20T15:34:21.581Z,75.71
2018-11-20T15:37:09.440Z,75.46
2018-11-20T15:40:14.067Z,75.26
2018-11-20T15:43:21.507Z,75.44
2018-11-20T15:46:19.539Z,75.36
2018-11-20T15:49:21.735Z,75.99
2018-11-20T15:52:10.022Z,75.41
2018-11-20T15:55:01.762Z,75.09
2018-11-20T15:57:51.125Z,75.08
2018-11-20T16:00:39.108Z,75.79
2018-11-20T16:03:43.665Z,75.76
2018-11-20T16:06:47.984Z,75.75
2018-11-20T16:09:35.955Z,75.61
2018-11-20T16:12:34.953Z,75.92
2018-11-20T16:15:37.248Z,76.74
2018-11-20T16:18:44.722Z,75.79
2018-11-20T16:21:36.668Z,76.34
2018-11-20T16:24:38.209Z,76.51
2018-11-20T16:27:27.418Z,76.31
2018-11-20T16:30:15.162Z,78.10
2018-11-20T16:33:07.400Z,76.32
2018-11-20T16:36:11.778Z,75.79
2018-11-20T16:39:06.724Z,76.99
2018-11-20T16:42:01.597Z,76.63
2018-11-20T16:44:50.828Z,76.55
2018-11-20T16:47:33.408Z,76.62
2018-11-20T16:50:25.284Z,76.66
2018-11-20T16:53:28.049Z,75.89
2018-11-20T16:56:23.114Z,76.83
2018-11-20T16:59:27.608Z,76.02
2018-11-20T17:02:29.740Z,77.30
2018-11-20T17:05:24.755Z,76.52
2018-11-20T17:08:14.403Z,76.58
2018-11-20T17:11:00.926Z,76.70
2018-11-20T17:13:59.058Z,76.16
2018-11-20T17:17:00.306Z,78.23
2018-11-20T17:20:07.800Z,77.64
2018-11-20T17:22:55.809Z,77.22
2018-11-20T17:25:46.179Z,76.41
2018-11-20T17:28:44.436Z,76.83
2018-11-20T17:31:42.502Z,76.08
2018-11-20T17:34:34.745Z,78.16
2018-11-20T17:37:23.159Z,77.36
2018-11-20T17:40:15.387Z,76.21
2018-11-20T17:43:22.509Z,76.47
2018-11-20T17:46:10.581Z,76.23
2018-11-20T17:48:58.910Z,76.14
2018-11-20T17:51:51.031Z,76.84
2018-11-20T17:54:42.975Z,77.68
2018-11-20T17:57:31.220Z,77.99
2018-11-20T18:00:29.433Z,76.55
2018-11-20T18:03:17.372Z,76.53
2018-11-20T18:06:05.266Z,76.37
2018-11-20T18:08:44.388Z,77.91
2018-11-20T18:11:52.018Z,77.20
2018-11-20T18:14:40.960Z,77.15
2018-11-20T18:17:35.760Z,76.71
2018-11-20T18:20:25.177Z,76.17
2018-11-20T18:23:15.953Z,76.17
2018-11-20T18:26:06.790Z,76.34
2018-11-20T18:29:08.038Z,75.55
2018-11-20T18:32:03.143Z,75.07
2018-11-20T18:34:51.138Z,75.08
2018-11-20T18:37:40.415Z,75.71
2018-11-20T18:40:41.820Z,76.82
2018-11-20T18:43:29.569Z,76.09
2018-11-20T18:46:11.753Z,75.91
2018-11-20T18:49:16.250Z,76.13
2018-11-20T18:52:08.210Z,76.32
2018-11-20T18:55:01.320Z,75.33
2018-11-20T18:58:05.500Z,74.76
2018-11-20T19:01:39.385Z,75.34
2018-11-20T19:04:22.082Z,76.11
2018-11-20T19:07:09.383Z,75.58
2018-11-20T19:09:59.077Z,75.11
2018-11-20T19:12:47.486Z,74.89
2018-11-20T19:15:38.695Z,74.87
2018-11-20T19:18:25.672Z,75.49
2018-11-20T19:21:12.535Z,75.57
2018-11-20T19:23:59.598Z,75.18
2018-11-20T19:26:53.805Z,76.04
2018-11-20T19:29:41.665Z,75.67
2018-11-20T19:32:30.084Z,75.58
2018-11-20T19:35:17.012Z,76.02
2018-11-20T19:38:08.151Z,75.46
2018-11-20T19:41:11.617Z,75.66
2018-11-20T19:43:58.675Z,75.96
2018-11-20T19:46:43.785Z,75.62
2018-11-20T19:49:32.145Z,75.64
2018-11-20T19:52:29.529Z,74.84
2018-11-20T19:55:16.355Z,75.53
2018-11-20T19:58:23.029Z,74.76
2018-11-20T20:01:26.462Z,75.65
2018-11-20T20:04:14.934Z,75.91
2018-11-20T20:07:03.321Z,75.44
2018-11-20T20:09:48.427Z,75.30
2018-11-20T20:12:36.861Z,75.69
2018-11-20T20:15:38.789Z,75.59
2018-11-20T20:18:27.192Z,75.13
2018-11-20T20:21:14.301Z,76.75
2018-11-20T20:23:57.855Z,75.91
2018-11-20T20:26:44.742Z,76.95
2018-11-20T20:29:33.117Z,75.33
2018-11-20T20:32:24.027Z,76.58
2018-11-20T20:35:15.106Z,76.25
2018-11-20T20:38:04.176Z,75.96
2018-11-20T20:41:01.480Z,75.90
2018-11-20T20:43:48.716Z,75.47
2018-11-20T20:46:43.194Z,75.84
2018-11-20T20:49:24.426Z,75.59
2018-11-20T20:52:21.718Z,76.97
2018-11-20T20:55:19.395Z,76.41
2018-11-20T20:58:06.400Z,76.11
2018-11-20T21:01:03.641Z,76.17
2018-11-20T21:03:50.966Z,76.19
2018-11-20T21:06:38.616Z,75.85
2018-11-20T21:09:27.562Z,75.44
2018-11-20T21:12:14.857Z,76.77
2018-11-20T21:15:20.841Z,76.22
2018-11-20T21:18:09.765Z,76.51
2018-11-20T21:21:12.656Z,75.72
2018-11-20T21:23:52.756Z,76.16
2018-11-20T21:26:43.855Z,76.60
2018-11-20T21:29:50.528Z,75.91
2018-11-20T21:32:37.619Z,76.42
2018-11-20T21:35:29.197Z,76.71
2018-11-20T21:38:20.456Z,76.97
2018-11-20T21:41:05.827Z,76.99
2018-11-20T21:44:06.462Z,76.69
2018-11-20T21:46:54.902Z,76.93
2018-11-20T21:49:42.195Z,77.37
2018-11-20T21:52:33.370Z,76.31
2018-11-20T21:55:40.138Z,76.58
2018-11-20T21:58:26.197Z,76.06
2018-11-20T22:01:32.566Z,76.38
2018-11-20T22:04:33.303Z,75.93
2018-11-20T22:07:20.493Z,76.05
2018-11-20T22:10:07.501Z,76.80
2018-11-20T22:13:08.071Z,76.81
2018-11-20T22:15:56.500Z,77.17
2018-11-20T22:18:43.712Z,76.71
2018-11-20T22:21:31.286Z,76.66
2018-11-20T22:24:34.682Z,77.65
2018-11-20T22:27:23.182Z,79.86
2018-11-20T22:30:03.223Z,77.95
2018-11-20T22:32:50.117Z,77.30
2018-11-20T22:35:38.626Z,76.70
2018-11-20T22:38:42.220Z,76.44
2018-11-20T22:41:42.619Z,76.87
2018-11-20T22:44:34.005Z,76.23
2018-11-20T22:47:17.044Z,76.31
2018-11-20T22:50:20.862Z,75.71
2018-11-20T22:53:11.919Z,76.69
2018-11-20T22:56:06.084Z,77.03
2018-11-20T22:59:05.195Z,76.87
2018-11-20T23:01:53.748Z,76.94
2018-11-20T23:04:48.510Z,76.64
2018-11-20T23:07:39.846Z,76.45
2018-11-20T23:10:09.274Z,76.10
2018-11-20T23:12:38.738Z,75.42
2018-11-20T23:15:10.759Z,75.28
2018-11-20T23:17:40.193Z,75.63
2018-11-20T23:20:10.731Z,76.05
2018-11-20T23:22:40.217Z,76.20
2018-11-20T23:25:11.497Z,76.68
2018-11-20T23:27:41.146Z,76.09
2018-11-20T23:30:15.261Z,76.45
2018-11-20T23:32:44.732Z,76.14
2018-11-20T23:35:14.278Z,77.07
2018-11-20T23:37:44.040Z,77.42
2018-11-20T23:40:14.231Z,78.06
2018-11-20T23:42:43.637Z,78.11
2018-11-20T23:45:14.214Z,77.71
2018-11-20T23:47:43.669Z,77.59
2018-11-20T23:50:14.227Z,78.21
2018-11-20T23:52:43.673Z,77.23
2018-11-20T23:55:14.351Z,77.01
2018-11-20T23:57:43.799Z,76.74
